Time;durP1;ratioP1;P1;durP2;ratioP2;P2;SDS_P1;SDS_P2;PMS_P1;PMS_P2;Temp;Humidity;BMP_temperature;BMP_pressure;BME280_temperature;BME280_humidity;BME280_pressure;Samples;Min_cycle;Max_cycle;Signal;HPM_P1;HPM_P2
2022/07/16 00:01:24;;;;;;;7.85;3.70;;;16.30;99.90;;;;;;5072254;28;20045;-60
2022/07/16 00:03:54;;;;;;;5.43;3.20;;;16.30;99.90;;;;;;5066745;28;20064;-61
2022/07/16 00:06:22;;;;;;;6.20;3.22;;;16.30;99.90;;;;;;5070616;28;20144;-61
2022/07/16 00:08:48;;;;;;;6.65;3.30;;;16.30;99.90;;;;;;5071762;28;20044;-61
2022/07/16 00:11:14;;;;;;;6.57;3.40;;;16.30;99.90;;;;;;5072236;28;20083;-60
2022/07/16 00:13:40;;;;;;;8.30;2.88;;;16.30;99.90;;;;;;5066786;28;20478;-60
2022/07/16 00:16:07;;;;;;;6.68;3.25;;;16.30;99.90;;;;;;5059816;28;20040;-61
2022/07/16 00:21:18;;;;;;;;;;;16.40;99.90;;;;;;5059541;28;20441;-61
2022/07/16 00:23:43;;;;;;;5.90;2.85;;;16.40;99.90;;;;;;5063756;28;19924;-61
2022/07/16 00:26:09;;;;;;;6.60;3.45;;;16.40;99.90;;;;;;5052059;28;20057;-60
2022/07/16 00:28:35;;;;;;;6.88;3.25;;;16.40;99.90;;;;;;5057432;28;20481;-65
2022/07/16 00:31:00;;;;;;;6.13;3.30;;;16.40;99.90;;;;;;5051602;28;20127;-62
2022/07/16 00:33:26;;;;;;;8.05;4.00;;;16.40;99.90;;;;;;5057840;28;20041;-61
2022/07/16 00:35:52;;;;;;;9.00;4.07;;;16.40;99.90;;;;;;5053971;28;20041;-62
2022/07/16 00:38:18;;;;;;;6.72;3.85;;;16.30;99.90;;;;;;5055862;28;20041;-62
2022/07/16 00:40:43;;;;;;;6.72;4.18;;;16.20;99.90;;;;;;5054029;28;20052;-61
2022/07/16 00:43:11;;;;;;;7.55;4.03;;;16.20;99.90;;;;;;5051375;28;20052;-61
2022/07/16 00:45:37;;;;;;;6.55;3.83;;;16.10;99.90;;;;;;5058153;28;20058;-64
2022/07/16 00:48:03;;;;;;;7.68;3.60;;;16.10;99.90;;;;;;5058179;28;20040;-61
2022/07/16 00:50:29;;;;;;;5.72;2.83;;;16.10;99.90;;;;;;5064075;28;20043;-61
2022/07/16 00:52:55;;;;;;;5.75;2.60;;;16.00;99.90;;;;;;5052956;28;20127;-61
2022/07/16 00:55:20;;;;;;;5.35;2.53;;;15.90;99.90;;;;;;5068103;28;20124;-60
2022/07/16 00:57:46;;;;;;;5.18;2.75;;;15.90;99.90;;;;;;5070419;28;20044;-60
2022/07/16 01:00:12;;;;;;;4.43;2.47;;;15.90;99.90;;;;;;5058332;28;20071;-61
2022/07/16 01:02:38;;;;;;;6.93;2.38;;;15.90;99.90;;;;;;5069245;28;20059;-65
2022/07/16 01:05:05;;;;;;;4.88;2.10;;;15.90;99.90;;;;;;5068326;28;20704;-61
2022/07/16 01:07:31;;;;;;;6.75;2.00;;;15.90;99.90;;;;;;5055667;28;20047;-61
2022/07/16 01:09:57;;;;;;;3.22;2.00;;;16.00;99.90;;;;;;5070273;28;20105;-61
2022/07/16 01:12:25;;;;;;;3.60;1.90;;;16.00;99.90;;;;;;5070929;28;20041;-61
2022/07/16 01:14:51;;;;;;;5.05;1.85;;;16.00;99.90;;;;;;5069075;28;20621;-61
2022/07/16 01:17:17;;;;;;;2.92;1.65;;;16.00;99.90;;;;;;5069696;28;20048;-61
2022/07/16 01:19:42;;;;;;;4.97;1.95;;;16.00;99.90;;;;;;5069951;28;20109;-63
2022/07/16 01:22:10;;;;;;;5.63;1.77;;;16.00;99.90;;;;;;5070855;28;20056;-61
2022/07/16 01:24:39;;;;;;;2.95;1.60;;;16.00;99.90;;;;;;5064734;28;20041;-61
2022/07/16 01:27:05;;;;;;;3.75;1.70;;;16.00;99.90;;;;;;5059943;28;20533;-61
2022/07/16 01:29:31;;;;;;;4.07;1.52;;;15.90;99.90;;;;;;5068998;28;20044;-61
2022/07/16 01:31:56;;;;;;;4.28;1.73;;;15.90;99.90;;;;;;5069734;28;20493;-61
2022/07/16 01:34:25;;;;;;;4.38;2.00;;;15.90;99.90;;;;;;5070585;28;20044;-62
2022/07/16 01:37:03;;;;;;;5.88;1.85;;;15.90;99.90;;;;;;5068270;28;20037;-61
2022/07/16 01:39:32;;;;;;;4.53;1.80;;;15.90;99.90;;;;;;5069662;28;20381;-61
2022/07/16 01:42:00;;;;;;;10.50;2.08;;;15.80;99.90;;;;;;5069852;28;20104;-63
2022/07/16 01:44:28;;;;;;;3.97;1.58;;;15.80;99.90;;;;;;5070165;28;20048;-61
2022/07/16 01:46:55;;;;;;;4.45;2.10;;;15.80;99.90;;;;;;5066727;28;20044;-61
2022/07/16 01:49:21;;;;;;;6.60;2.13;;;15.90;99.90;;;;;;5070312;28;20041;-61
2022/07/16 01:51:48;;;;;;;5.10;1.88;;;15.90;99.90;;;;;;5069295;28;20580;-62
2022/07/16 01:54:14;;;;;;;9.65;2.22;;;15.90;99.90;;;;;;5070330;28;20408;-61
2022/07/16 01:56:40;;;;;;;5.35;1.92;;;15.80;99.90;;;;;;5067414;28;20041;-60
2022/07/16 01:59:06;;;;;;;5.78;2.15;;;15.90;99.90;;;;;;5059276;28;20482;-61
2022/07/16 02:01:32;;;;;;;5.15;1.85;;;15.80;99.90;;;;;;5057612;28;20060;-61
2022/07/16 02:03:58;;;;;;;7.47;2.47;;;15.80;99.90;;;;;;5069549;28;20056;-61
2022/07/16 02:06:24;;;;;;;4.68;1.83;;;15.70;99.90;;;;;;5070131;28;20068;-60
2022/07/16 02:08:50;;;;;;;6.45;2.10;;;15.70;99.90;;;;;;5050800;28;20088;-61
2022/07/16 02:11:16;;;;;;;5.32;2.10;;;15.70;99.90;;;;;;5069085;28;20087;-61
2022/07/16 02:13:42;;;;;;;4.82;2.03;;;15.70;99.90;;;;;;5070126;28;20436;-60
2022/07/16 02:16:08;;;;;;;6.47;2.10;;;15.60;99.90;;;;;;5068096;28;20033;-61
2022/07/16 02:18:35;;;;;;;5.53;1.83;;;15.60;99.90;;;;;;5068575;28;20040;-62
2022/07/16 02:21:01;;;;;;;4.25;1.67;;;15.60;99.90;;;;;;5069235;28;20076;-61
2022/07/16 02:23:26;;;;;;;4.50;1.90;;;15.50;99.90;;;;;;5069881;28;20076;-61
2022/07/16 02:25:52;;;;;;;4.03;1.90;;;15.40;99.90;;;;;;5068187;28;20505;-61
2022/07/16 02:28:18;;;;;;;4.18;1.83;;;15.40;99.90;;;;;;5067601;28;20044;-61
2022/07/16 02:30:47;;;;;;;4.93;2.00;;;15.30;99.90;;;;;;5068378;28;20429;-60
2022/07/16 02:33:15;;;;;;;7.30;1.90;;;15.30;99.90;;;;;;5069915;28;20080;-60
2022/07/16 02:35:41;;;;;;;5.85;1.90;;;15.20;99.90;;;;;;5069538;28;20044;-61
2022/07/16 02:38:08;;;;;;;5.70;1.95;;;15.20;99.90;;;;;;5068124;28;20063;-61
2022/07/16 02:40:34;;;;;;;4.20;1.77;;;15.10;99.90;;;;;;5054023;28;20056;-61
2022/07/16 02:43:02;;;;;;;3.80;1.88;;;15.10;99.90;;;;;;5073392;28;20106;-61
2022/07/16 02:45:28;;;;;;;5.32;2.25;;;15.00;99.90;;;;;;5073375;28;20045;-60
2022/07/16 02:47:54;;;;;;;7.78;2.25;;;15.00;99.90;;;;;;5072843;28;20048;-63
2022/07/16 02:50:19;;;;;;;4.55;2.25;;;15.00;99.90;;;;;;5068445;28;20041;-61
2022/07/16 02:52:45;;;;;;;7.30;2.33;;;14.90;99.90;;;;;;5072479;28;20048;-61
2022/07/16 02:55:11;;;;;;;5.78;2.17;;;14.90;99.90;;;;;;5072620;28;20040;-61
2022/07/16 02:57:37;;;;;;;8.50;2.45;;;14.90;99.90;;;;;;5071397;28;20053;-62
2022/07/16 03:00:05;;;;;;;7.65;2.20;;;14.90;99.90;;;;;;5042358;28;20056;-61
2022/07/16 03:02:31;;;;;;;4.85;2.10;;;14.80;99.90;;;;;;5073339;28;20084;-62
2022/07/16 03:04:57;;;;;;;6.88;2.13;;;14.80;99.90;;;;;;5072942;28;20134;-65
2022/07/16 03:07:23;;;;;;;5.50;2.10;;;14.70;99.90;;;;;;5072936;28;20903;-62
2022/07/16 03:09:48;;;;;;;5.38;2.25;;;14.80;99.90;;;;;;5071346;28;20048;-62
2022/07/16 03:12:14;;;;;;;8.13;2.50;;;14.80;99.90;;;;;;5071414;28;20174;-59
2022/07/16 03:14:40;;;;;;;6.25;2.40;;;14.70;99.90;;;;;;5073242;28;20051;-60
2022/07/16 03:17:05;;;;;;;6.82;2.28;;;14.70;99.90;;;;;;5072509;28;20040;-60
2022/07/16 03:19:31;;;;;;;7.53;2.92;;;14.70;99.90;;;;;;5071488;28;20036;-60
2022/07/16 03:21:57;;;;;;;6.07;2.35;;;14.70;99.90;;;;;;5071247;28;20514;-60
2022/07/16 03:24:22;;;;;;;7.65;2.42;;;14.70;99.90;;;;;;5072852;28;20044;-60
2022/07/16 03:26:48;;;;;;;5.95;2.25;;;14.70;99.90;;;;;;5071254;28;20127;-60
2022/07/16 03:29:13;;;;;;;6.50;2.95;;;14.70;99.90;;;;;;5070996;28;20044;-60
2022/07/16 03:31:39;;;;;;;8.05;2.60;;;14.70;99.90;;;;;;5065356;28;20044;-61
2022/07/16 03:34:05;;;;;;;7.32;2.47;;;14.80;99.90;;;;;;5071829;28;20226;-61
2022/07/16 03:36:30;;;;;;;8.73;2.85;;;14.80;99.90;;;;;;5071154;28;20094;-61
2022/07/16 03:39:01;;;;;;;6.18;2.38;;;14.80;99.90;;;;;;5054475;28;20428;-60
2022/07/16 03:41:27;;;;;;;6.60;2.60;;;14.80;99.90;;;;;;5066318;28;20123;-60
2022/07/16 03:43:52;;;;;;;5.00;2.60;;;14.80;99.90;;;;;;5071045;28;20106;-60
2022/07/16 03:46:18;;;;;;;5.57;2.65;;;14.80;99.90;;;;;;5070751;28;20044;-60
2022/07/16 03:48:44;;;;;;;6.03;2.42;;;14.90;99.90;;;;;;5063489;28;20127;-63
2022/07/16 03:51:10;;;;;;;10.25;2.88;;;14.90;99.90;;;;;;5055936;28;20091;-61
2022/07/16 03:53:37;;;;;;;5.07;2.78;;;14.90;99.90;;;;;;5063265;28;20040;-61
2022/07/16 03:56:04;;;;;;;5.80;2.70;;;14.90;99.90;;;;;;5065061;28;20048;-61
2022/07/16 03:58:29;;;;;;;7.05;2.63;;;14.80;99.90;;;;;;5061565;28;20045;-60
2022/07/16 04:00:56;;;;;;;5.72;2.75;;;14.80;99.90;;;;;;5079492;28;20407;-60
2022/07/16 04:03:22;;;;;;;4.45;2.50;;;14.80;99.90;;;;;;5063338;28;20040;-61
2022/07/16 04:05:48;;;;;;;7.72;2.60;;;14.70;99.90;;;;;;5072233;28;20631;-60
2022/07/16 04:08:14;;;;;;;5.65;2.50;;;14.70;99.90;;;;;;5071768;28;20052;-60
2022/07/16 04:10:40;;;;;;;7.72;2.90;;;14.60;99.90;;;;;;5071838;28;20055;-60
2022/07/16 04:13:05;;;;;;;7.47;2.47;;;14.60;99.90;;;;;;5071073;28;20052;-60
2022/07/16 04:15:31;;;;;;;5.53;2.40;;;14.60;99.90;;;;;;5072176;28;20418;-60
2022/07/16 04:17:57;;;;;;;9.32;2.60;;;14.50;99.90;;;;;;5070789;28;20402;-61
2022/07/16 04:20:22;;;;;;;5.03;2.17;;;14.50;99.90;;;;;;5071258;28;20036;-60
2022/07/16 04:22:48;;;;;;;8.10;2.53;;;14.50;99.90;;;;;;5071657;28;20044;-60
2022/07/16 04:25:14;;;;;;;4.93;2.55;;;14.50;99.90;;;;;;5071105;28;20127;-60
2022/07/16 04:27:41;;;;;;;6.70;2.70;;;14.40;99.90;;;;;;5072264;28;20044;-61
2022/07/16 04:30:08;;;;;;;8.90;2.83;;;14.50;99.90;;;;;;5071796;28;20123;-64
2022/07/16 04:32:35;;;;;;;6.20;2.40;;;14.50;99.90;;;;;;5071009;28;20157;-60
2022/07/16 04:35:01;;;;;;;5.32;2.05;;;14.50;99.90;;;;;;5059070;28;20081;-60
2022/07/16 04:37:26;;;;;;;6.70;2.60;;;14.60;99.90;;;;;;5071697;28;20044;-60
2022/07/16 04:39:52;;;;;;;6.72;2.25;;;14.60;99.90;;;;;;5070235;28;20379;-60
2022/07/16 04:42:18;;;;;;;7.90;2.28;;;14.70;99.90;;;;;;5052963;28;20045;-61
2022/07/16 04:44:44;;;;;;;6.72;2.10;;;14.70;99.90;;;;;;5064732;28;20044;-60
2022/07/16 04:47:10;;;;;;;5.53;2.17;;;14.80;99.90;;;;;;5070701;28;20044;-60
2022/07/16 04:49:35;;;;;;;6.80;2.10;;;14.80;99.90;;;;;;5070243;28;20029;-60
2022/07/16 04:52:01;;;;;;;10.35;2.47;;;14.90;99.90;;;;;;5070363;28;20064;-60
2022/07/16 04:54:27;;;;;;;8.73;2.25;;;14.90;99.90;;;;;;5069876;28;20059;-60
2022/07/16 04:56:53;;;;;;;11.30;2.40;;;15.00;99.90;;;;;;5071164;28;20470;-60
2022/07/16 04:59:19;;;;;;;8.02;2.05;;;15.10;99.90;;;;;;5059160;28;20049;-60
2022/07/16 05:01:45;;;;;;;12.15;2.20;;;15.30;99.90;;;;;;5067607;28;20052;-60
2022/07/16 05:04:11;;;;;;;4.05;1.83;;;15.60;99.90;;;;;;5070584;28;20137;-60
2022/07/16 05:06:36;;;;;;;4.88;1.67;;;15.80;99.90;;;;;;5066193;28;20098;-61
2022/07/16 05:09:02;;;;;;;3.85;1.42;;;16.20;99.90;;;;;;5071530;28;20505;-60
2022/07/16 05:11:29;;;;;;;5.93;1.75;;;16.80;99.90;;;;;;5070733;28;20417;-60
2022/07/16 05:13:55;;;;;;;7.10;1.98;;;17.60;99.90;;;;;;5070001;28;20175;-60
2022/07/16 05:16:22;;;;;;;7.47;1.65;;;18.50;99.90;;;;;;5071044;28;20374;-62
2022/07/16 05:18:48;;;;;;;6.95;1.60;;;19.40;99.90;;;;;;5068063;28;20082;-61
2022/07/16 05:21:14;;;;;;;6.20;1.50;;;19.90;99.90;;;;;;5069622;28;20048;-64
2022/07/16 05:23:40;;;;;;;7.93;2.00;;;20.50;99.90;;;;;;5071095;28;20048;-61
2022/07/16 05:26:05;;;;;;;5.88;1.27;;;21.00;99.90;;;;;;5070454;28;20127;-61
2022/07/16 05:28:31;;;;;;;7.97;1.77;;;21.80;99.90;;;;;;5070263;28;20048;-61
2022/07/16 05:30:57;;;;;;;4.03;1.52;;;22.30;99.60;;;;;;5068510;28;20040;-61
2022/07/16 05:33:23;;;;;;;5.80;1.70;;;22.80;98.30;;;;;;5062769;28;20048;-61
2022/07/16 05:35:48;;;;;;;5.80;1.60;;;23.20;97.20;;;;;;5070622;28;20037;-61
2022/07/16 05:38:14;;;;;;;4.90;1.60;;;23.50;96.40;;;;;;5049641;28;20227;-61
2022/07/16 05:40:40;;;;;;;9.77;1.67;;;24.00;95.40;;;;;;5070532;28;20055;-61
2022/07/16 05:43:06;;;;;;;5.15;1.40;;;24.00;94.10;;;;;;5069876;28;20040;-61
2022/07/16 05:45:32;;;;;;;6.18;1.50;;;24.40;94.30;;;;;;5063567;28;20393;-62
2022/07/16 05:47:58;;;;;;;7.05;1.73;;;23.90;93.60;;;;;;5069488;28;20052;-61
2022/07/16 05:50:24;;;;;;;5.07;1.67;;;22.80;94.60;;;;;;5064028;28;20596;-60
2022/07/16 05:52:50;;;;;;;6.30;1.60;;;21.60;95.80;;;;;;5070621;28;20040;-61
2022/07/16 05:55:15;;;;;;;6.38;1.98;;;20.50;97.00;;;;;;5069072;28;20371;-61
2022/07/16 05:57:41;;;;;;;7.68;1.30;;;19.80;98.20;;;;;;5063436;28;20094;-61
2022/07/16 06:00:12;;;;;;;4.93;1.38;;;19.20;98.80;;;;;;5058963;28;20466;-61
2022/07/16 06:02:41;;;;;;;6.80;1.67;;;19.10;99.10;;;;;;5049919;28;20128;-61
2022/07/16 06:05:08;;;;;;;6.97;1.83;;;19.70;98.90;;;;;;5052578;28;20049;-62
2022/07/16 06:07:34;;;;;;;5.05;1.60;;;20.80;97.50;;;;;;5057423;28;20041;-62
2022/07/16 06:10:00;;;;;;;4.35;1.42;;;21.90;96.90;;;;;;5051929;28;20502;-61
2022/07/16 06:12:26;;;;;;;5.22;1.50;;;22.80;95.40;;;;;;5053909;28;20489;-62
2022/07/16 06:14:52;;;;;;;4.30;1.30;;;23.60;94.20;;;;;;5057961;28;20086;-62
2022/07/16 06:17:18;;;;;;;5.28;1.40;;;24.10;93.40;;;;;;5063216;28;20041;-62
2022/07/16 06:19:44;;;;;;;4.35;1.17;;;24.60;92.60;;;;;;5058769;28;20047;-62
2022/07/16 06:22:10;;;;;;;5.10;1.48;;;24.90;91.70;;;;;;5045353;28;20053;-61
2022/07/16 06:24:36;;;;;;;4.65;1.30;;;24.90;91.20;;;;;;5055530;28;20485;-62
2022/07/16 06:27:03;;;;;;;7.68;1.55;;;25.10;90.70;;;;;;5058076;28;20032;-62
2022/07/16 06:29:29;;;;;;;4.00;1.33;;;25.10;90.70;;;;;;5061372;28;20047;-62
2022/07/16 06:31:54;;;;;;;3.58;1.25;;;25.20;90.10;;;;;;5060109;28;20056;-62
2022/07/16 06:34:20;;;;;;;3.72;1.13;;;25.30;90.20;;;;;;5056290;28;20063;-62
2022/07/16 06:36:46;;;;;;;5.10;1.50;;;25.50;89.80;;;;;;5058022;28;20047;-62
2022/07/16 06:39:12;;;;;;;5.65;1.40;;;25.60;89.40;;;;;;5068057;28;20040;-62
2022/07/16 06:41:38;;;;;;;4.10;1.55;;;25.90;89.10;;;;;;5073994;28;20121;-62
2022/07/16 06:44:06;;;;;;;7.50;1.70;;;25.60;87.70;;;;;;5074015;28;20131;-62
2022/07/16 06:46:32;;;;;;;4.60;1.40;;;25.30;87.70;;;;;;5046391;28;20045;-62
2022/07/16 06:48:58;;;;;;;4.10;1.23;;;25.50;86.40;;;;;;5072095;28;20055;-62
2022/07/16 06:51:23;;;;;;;4.78;1.25;;;25.30;87.00;;;;;;5072946;28;20492;-62
2022/07/16 06:53:49;;;;;;;5.22;1.60;;;25.00;87.70;;;;;;5072765;28;20032;-61
2022/07/16 06:56:15;;;;;;;6.20;1.45;;;24.90;87.50;;;;;;5073722;28;20044;-61
2022/07/16 06:58:41;;;;;;;4.78;1.20;;;24.10;87.20;;;;;;5068240;28;20064;-61
2022/07/16 07:01:08;;;;;;;4.25;1.25;;;24.00;89.00;;;;;;5073595;28;20048;-61
2022/07/16 07:03:34;;;;;;;3.42;1.10;;;24.70;88.50;;;;;;5066657;28;20049;-62
2022/07/16 07:05:59;;;;;;;4.93;1.50;;;25.40;86.60;;;;;;5073688;28;20048;-62
2022/07/16 07:08:25;;;;;;;7.78;1.73;;;26.00;86.80;;;;;;5072084;28;20056;-61
2022/07/16 07:10:51;;;;;;;5.82;1.20;;;26.10;85.50;;;;;;5072246;28;20063;-62
2022/07/16 07:13:17;;;;;;;4.90;1.30;;;25.70;84.60;;;;;;5072168;28;20078;-63
2022/07/16 07:15:42;;;;;;;3.97;1.10;;;25.60;84.70;;;;;;5069453;28;20037;-61
2022/07/16 07:18:08;;;;;;;3.97;1.40;;;26.00;83.80;;;;;;5070346;28;20044;-61
2022/07/16 07:20:34;;;;;;;3.90;1.10;;;26.50;82.80;;;;;;5072284;28;20127;-61
2022/07/16 07:22:59;;;;;;;2.85;1.08;;;26.70;80.70;;;;;;5069553;28;20040;-63
2022/07/16 07:25:26;;;;;;;4.53;1.30;;;27.20;80.80;;;;;;5051734;28;20051;-61
2022/07/16 07:27:52;;;;;;;3.13;1.10;;;27.60;81.10;;;;;;5063590;28;20499;-62
2022/07/16 07:30:18;;;;;;;3.58;1.27;;;27.80;79.60;;;;;;5070630;28;20406;-61
2022/07/16 07:32:43;;;;;;;4.28;1.17;;;27.10;79.60;;;;;;5059664;28;20048;-61
2022/07/16 07:35:09;;;;;;;3.72;1.13;;;26.00;80.90;;;;;;5057834;28;20048;-62
2022/07/16 07:37:35;;;;;;;4.93;1.30;;;25.50;82.80;;;;;;5061585;28;20306;-62
2022/07/16 07:40:03;;;;;;;5.07;0.93;;;25.30;83.80;;;;;;5056634;28;20084;-62
2022/07/16 07:42:29;;;;;;;4.13;1.38;;;25.40;82.70;;;;;;5063736;28;20059;-61
2022/07/16 07:44:54;;;;;;;4.80;1.10;;;25.80;83.40;;;;;;5045424;28;20049;-62
2022/07/16 07:47:20;;;;;;;3.47;1.38;;;26.10;83.00;;;;;;5052500;28;20037;-62
2022/07/16 07:49:46;;;;;;;5.00;1.30;;;25.00;82.50;;;;;;5079134;28;20049;-61
2022/07/16 07:52:13;;;;;;;3.05;1.15;;;24.20;84.70;;;;;;5059605;28;20116;-62
2022/07/16 07:54:39;;;;;;;3.15;1.42;;;23.40;86.90;;;;;;5061312;28;20057;-61
2022/07/16 07:57:05;;;;;;;5.65;1.33;;;22.80;88.90;;;;;;5053629;28;20120;-60
2022/07/16 07:59:31;;;;;;;5.25;1.52;;;22.50;90.00;;;;;;5058846;28;20500;-61
2022/07/16 08:01:56;;;;;;;5.45;1.48;;;22.20;90.00;;;;;;5067818;28;20100;-61
2022/07/16 08:04:22;;;;;;;5.57;1.65;;;21.80;90.30;;;;;;5052529;28;20106;-62
2022/07/16 08:06:48;;;;;;;5.30;1.63;;;21.70;90.80;;;;;;5019867;28;20113;-61
2022/07/16 08:09:14;;;;;;;5.45;1.50;;;21.70;91.20;;;;;;5052613;28;20150;-61
2022/07/16 08:11:39;;;;;;;5.13;1.33;;;21.80;91.00;;;;;;5056580;28;20045;-61
2022/07/16 08:14:05;;;;;;;5.05;1.40;;;22.20;91.00;;;;;;5063195;28;20106;-61
2022/07/16 08:16:31;;;;;;;4.00;1.33;;;22.20;90.70;;;;;;5052528;28;20118;-61
2022/07/16 08:18:56;;;;;;;4.35;1.60;;;22.30;90.90;;;;;;5051409;28;20262;-61
2022/07/16 08:21:22;;;;;;;4.57;1.40;;;22.30;90.60;;;;;;5062293;28;20045;-61
2022/07/16 08:26:32;;;;;;;;;;;22.50;90.80;;;;;;5052452;28;20052;-61
2022/07/16 08:28:57;;;;;;;6.43;1.52;;;22.30;91.10;;;;;;5070039;28;19940;-61
2022/07/16 08:31:23;;;;;;;8.63;1.70;;;22.10;91.30;;;;;;5054507;28;20447;-61
2022/07/16 08:33:49;;;;;;;5.35;1.67;;;21.90;91.50;;;;;;5056982;28;20045;-61
2022/07/16 08:36:14;;;;;;;6.50;1.63;;;21.90;91.90;;;;;;5057403;28;20084;-61
2022/07/16 08:38:40;;;;;;;4.32;1.20;;;21.80;91.40;;;;;;5058501;28;20464;-62
2022/07/16 08:41:06;;;;;;;4.50;1.60;;;21.90;91.00;;;;;;5052284;28;20466;-60
2022/07/16 08:43:32;;;;;;;4.85;1.33;;;21.60;90.30;;;;;;5057618;28;20041;-59
2022/07/16 08:45:59;;;;;;;3.42;1.00;;;21.50;90.40;;;;;;5051988;28;20124;-61
2022/07/16 08:48:24;;;;;;;6.57;1.40;;;21.90;90.70;;;;;;5055739;28;20044;-60
2022/07/16 08:50:53;;;;;;;4.15;1.42;;;21.80;90.00;;;;;;5053166;28;20053;-60
2022/07/16 08:53:23;;;;;;;5.93;1.60;;;21.70;90.40;;;;;;5055241;28;20076;-61
2022/07/16 08:55:52;;;;;;;5.20;1.55;;;21.90;91.20;;;;;;5061759;28;20105;-61
2022/07/16 08:58:18;;;;;;;5.15;1.42;;;22.80;90.60;;;;;;5051234;28;20127;-61
2022/07/16 09:00:45;;;;;;;4.90;1.60;;;24.00;90.10;;;;;;5070230;28;20486;-62
2022/07/16 09:03:14;;;;;;;5.93;1.75;;;24.70;87.00;;;;;;5070908;28;20069;-61
2022/07/16 09:05:41;;;;;;;4.20;1.20;;;25.20;87.30;;;;;;5069753;28;20043;-62
2022/07/16 09:08:07;;;;;;;5.15;1.35;;;25.90;84.80;;;;;;5069791;28;20048;-60
2022/07/16 09:10:35;;;;;;;5.07;1.30;;;26.50;83.10;;;;;;5061823;28;20048;-61
2022/07/16 09:13:02;;;;;;;4.18;1.30;;;27.00;83.10;;;;;;5070705;28;20040;-60
2022/07/16 09:15:42;;;;;;;6.35;1.60;;;26.90;79.70;;;;;;5067865;28;20559;-61
2022/07/16 09:18:20;;;;;;;5.15;1.08;;;26.80;79.20;;;;;;5050921;28;20056;-61
2022/07/16 09:20:56;;;;;;;5.05;1.45;;;26.70;80.00;;;;;;5060932;28;20045;-63
2022/07/16 09:23:33;;;;;;;7.07;2.00;;;27.10;81.40;;;;;;5056432;28;20048;-63
2022/07/16 09:26:03;;;;;;;8.10;1.77;;;27.20;80.90;;;;;;5052687;28;20047;-60
2022/07/16 09:28:47;;;;;;;5.22;1.60;;;26.30;80.80;;;;;;5050322;28;20120;-60
2022/07/16 09:31:31;;;;;;;8.07;1.90;;;25.20;82.80;;;;;;5057247;28;20044;-61
2022/07/16 09:34:10;;;;;;;8.57;1.70;;;24.40;84.00;;;;;;5068241;28;20051;-61
2022/07/16 09:36:38;;;;;;;5.47;1.85;;;24.10;83.00;;;;;;5065884;28;20145;-60
2022/07/16 09:39:06;;;;;;;4.35;1.65;;;24.10;83.60;;;;;;5059000;28;20194;-61
2022/07/16 09:41:46;;;;;;;5.32;1.48;;;24.10;82.80;;;;;;5068067;28;20045;-60
2022/07/16 09:44:14;;;;;;;4.53;1.40;;;24.60;83.60;;;;;;5070207;28;20051;-61
2022/07/16 09:46:39;;;;;;;6.07;1.60;;;25.30;82.80;;;;;;5066973;28;20055;-61
2022/07/16 09:49:05;;;;;;;4.35;1.20;;;25.40;82.20;;;;;;5059119;28;20040;-62
2022/07/16 09:51:38;;;;;;;3.47;1.40;;;24.80;81.30;;;;;;5052558;28;20049;-59
2022/07/16 09:54:03;;;;;;;6.00;1.50;;;24.40;81.60;;;;;;5070163;28;20486;-62
2022/07/16 09:56:29;;;;;;;4.40;1.38;;;24.00;82.80;;;;;;5063045;28;20056;-60
2022/07/16 09:58:57;;;;;;;3.03;1.25;;;24.20;83.80;;;;;;5065997;28;20055;-60
2022/07/16 10:01:24;;;;;;;4.68;1.60;;;24.40;82.00;;;;;;5062078;28;20080;-60
2022/07/16 10:03:50;;;;;;;2.85;1.35;;;24.20;81.80;;;;;;5060915;28;20514;-60
2022/07/16 10:06:17;;;;;;;5.03;1.13;;;24.00;83.40;;;;;;5052206;28;20091;-61
2022/07/16 10:08:44;;;;;;;5.28;1.45;;;24.00;83.50;;;;;;5054395;28;20048;-61
2022/07/16 10:11:11;;;;;;;9.23;1.70;;;24.00;84.00;;;;;;5049008;28;20052;-61
2022/07/16 10:13:41;;;;;;;7.55;2.00;;;24.00;83.70;;;;;;5050516;28;20048;-61
2022/07/16 10:16:07;;;;;;;16.00;2.75;;;24.00;84.70;;;;;;5051743;28;20080;-62
2022/07/16 10:18:45;;;;;;;7.03;1.90;;;24.10;85.60;;;;;;5051579;28;20076;-61
2022/07/16 10:21:19;;;;;;;6.13;1.80;;;24.20;86.50;;;;;;5054682;28;20040;-61
2022/07/16 10:24:02;;;;;;;3.50;1.30;;;24.10;83.30;;;;;;5051456;28;20095;-62
2022/07/16 10:26:28;;;;;;;4.30;1.40;;;23.70;84.30;;;;;;5062085;28;20040;-60
2022/07/16 10:28:55;;;;;;;4.88;1.60;;;23.70;85.00;;;;;;5055695;28;20700;-60
2022/07/16 10:31:36;;;;;;;7.85;1.77;;;23.70;85.90;;;;;;5054671;28;20033;-60
2022/07/16 10:34:16;;;;;;;5.40;1.40;;;23.50;84.50;;;;;;5066386;28;20432;-60
2022/07/16 10:36:54;;;;;;;5.40;1.63;;;23.40;85.90;;;;;;5051464;28;20064;-61
2022/07/16 10:39:22;;;;;;;3.75;1.10;;;23.40;85.30;;;;;;5057666;28;20052;-60
2022/07/16 10:42:11;;;;;;;4.18;1.40;;;23.40;84.20;;;;;;5061975;28;20497;-61
2022/07/16 10:44:46;;;;;;;6.15;1.42;;;23.40;84.30;;;;;;5066339;28;20044;-61
2022/07/16 10:47:13;;;;;;;4.43;1.30;;;23.60;84.70;;;;;;5062914;28;20045;-61
2022/07/16 10:49:39;;;;;;;5.60;1.40;;;23.60;86.40;;;;;;5069344;28;20119;-61
2022/07/16 10:52:09;;;;;;;10.70;1.85;;;23.60;86.20;;;;;;5066169;28;20245;-62
2022/07/16 10:54:37;;;;;;;6.95;1.55;;;23.50;86.30;;;;;;5060182;28;20044;-61
2022/07/16 10:57:06;;;;;;;4.95;1.75;;;23.30;87.30;;;;;;5060683;28;20033;-62
2022/07/16 10:59:34;;;;;;;8.07;1.60;;;23.10;87.60;;;;;;5059924;28;20045;-62
2022/07/16 11:02:05;;;;;;;5.88;1.58;;;23.00;87.80;;;;;;5065020;28;20056;-61
2022/07/16 11:04:36;;;;;;;4.25;1.48;;;22.90;86.20;;;;;;5073082;28;20053;-61
2022/07/16 11:07:07;;;;;;;5.35;1.42;;;22.90;86.90;;;;;;5058714;28;20037;-61
2022/07/16 11:09:36;;;;;;;5.80;1.33;;;22.80;86.90;;;;;;5071069;28;20040;-62
2022/07/16 11:12:09;;;;;;;7.10;1.50;;;22.80;86.90;;;;;;5065183;28;20124;-64
2022/07/16 11:14:36;;;;;;;7.03;1.58;;;22.90;86.20;;;;;;5065847;28;20052;-61
2022/07/16 11:17:02;;;;;;;6.63;1.67;;;22.90;86.30;;;;;;5053503;28;20065;-61
2022/07/16 11:19:28;;;;;;;5.80;1.33;;;22.90;85.90;;;;;;5058057;28;20040;-62
2022/07/16 11:21:59;;;;;;;7.97;1.85;;;23.20;86.00;;;;;;5061686;28;20051;-61
2022/07/16 11:24:26;;;;;;;4.55;1.20;;;23.10;82.70;;;;;;5068308;28;20080;-61
2022/07/16 11:26:54;;;;;;;5.32;1.30;;;22.80;84.20;;;;;;5068727;28;20075;-61
2022/07/16 11:29:22;;;;;;;7.10;1.65;;;22.70;86.30;;;;;;5058806;28;20524;-61
2022/07/16 11:31:48;;;;;;;3.00;1.23;;;22.90;85.60;;;;;;5054047;28;20099;-61
2022/07/16 11:34:16;;;;;;;3.58;1.52;;;23.00;85.10;;;;;;5065307;28;20048;-60
2022/07/16 11:36:44;;;;;;;7.10;1.65;;;22.90;84.30;;;;;;5066596;28;20522;-61
2022/07/16 11:39:13;;;;;;;7.40;1.60;;;22.80;85.40;;;;;;5056263;28;20540;-61
2022/07/16 11:41:40;;;;;;;2.97;1.33;;;22.90;85.30;;;;;;5062287;28;20076;-62
2022/07/16 11:44:08;;;;;;;5.35;1.80;;;23.00;85.60;;;;;;5062126;28;20428;-64
2022/07/16 11:46:33;;;;;;;5.03;1.60;;;22.90;84.60;;;;;;5053068;28;20044;-61
2022/07/16 11:48:59;;;;;;;4.43;1.35;;;22.90;83.70;;;;;;5068319;28;20036;-61
2022/07/16 11:51:28;;;;;;;4.82;1.48;;;22.80;83.70;;;;;;5064609;28;20056;-61
2022/07/16 11:53:55;;;;;;;4.68;1.40;;;22.70;84.80;;;;;;5053282;28;20080;-61
2022/07/16 11:56:40;;;;;;;4.40;1.25;;;22.50;84.60;;;;;;5054389;28;20083;-63
2022/07/16 11:59:40;;;;;;;5.15;1.33;;;22.40;84.40;;;;;;5052835;28;20049;-62
2022/07/16 12:02:06;;;;;;;4.85;1.48;;;22.40;84.40;;;;;;5051053;28;20080;-60
2022/07/16 12:04:42;;;;;;;4.53;1.30;;;22.50;85.00;;;;;;5069842;28;20057;-61
2022/07/16 12:07:15;;;;;;;3.30;1.17;;;22.60;83.70;;;;;;5058613;28;20551;-61
2022/07/16 12:09:43;;;;;;;6.15;1.48;;;22.50;84.30;;;;;;5065544;28;20041;-60
2022/07/16 12:12:13;;;;;;;4.28;1.20;;;22.40;84.80;;;;;;5052501;28;20110;-62
2022/07/16 12:14:56;;;;;;;6.15;1.50;;;22.50;85.60;;;;;;5052155;28;20575;-61
2022/07/16 12:17:31;;;;;;;5.43;1.63;;;22.80;85.50;;;;;;5053511;28;20390;-61
2022/07/16 12:20:06;;;;;;;4.78;1.38;;;23.00;83.50;;;;;;5061756;28;20410;-62
2022/07/16 12:22:52;;;;;;;5.22;1.45;;;23.10;84.20;;;;;;5052332;28;20854;-61
2022/07/16 12:25:21;;;;;;;6.57;1.60;;;22.90;84.00;;;;;;5051178;28;20065;-62
2022/07/16 12:27:53;;;;;;;4.88;1.73;;;22.80;83.70;;;;;;5053027;28;20059;-61
2022/07/16 12:30:29;;;;;;;5.63;1.52;;;22.90;84.50;;;;;;5052840;28;20858;-61
2022/07/16 12:32:55;;;;;;;5.22;2.03;;;22.90;84.60;;;;;;5051329;28;20053;-61
2022/07/16 12:35:38;;;;;;;10.63;1.92;;;22.60;85.00;;;;;;5050642;28;20049;-60
2022/07/16 12:38:05;;;;;;;6.78;1.88;;;22.50;84.80;;;;;;5050885;28;20037;-61
2022/07/16 12:40:31;;;;;;;4.80;1.50;;;22.40;85.10;;;;;;5052835;28;20041;-60
2022/07/16 12:42:59;;;;;;;6.20;1.55;;;22.30;84.80;;;;;;5052047;28;20063;-60
2022/07/16 12:45:25;;;;;;;4.88;1.73;;;22.40;84.30;;;;;;5055125;28;20116;-60
2022/07/16 12:47:52;;;;;;;5.68;1.65;;;22.40;85.60;;;;;;5074690;28;20052;-60
2022/07/16 12:50:18;;;;;;;6.03;1.70;;;22.30;86.10;;;;;;5054373;28;20048;-60
2022/07/16 12:52:44;;;;;;;5.43;1.35;;;22.20;84.70;;;;;;5069853;28;20055;-60
2022/07/16 13:00:38;;;;;;;;;;;22.30;85.10;;;;;;5068440;28;20139;-60